createdAt,value
2019-06-15T00:02:16.391Z,13.27
2019-06-15T00:04:43.415Z,5.00
2019-06-15T00:07:10.479Z,8.03
2019-06-15T00:09:37.489Z,6.17
2019-06-15T00:12:04.546Z,11.47
2019-06-15T00:14:31.551Z,7.03
2019-06-15T00:16:58.581Z,6.03
2019-06-15T00:19:25.603Z,5.67
2019-06-15T00:21:52.617Z,6.53
2019-06-15T00:24:19.556Z,11.23
2019-06-15T00:26:46.577Z,12.37
2019-06-15T00:29:13.496Z,4.60
2019-06-15T00:31:40.408Z,7.57
2019-06-15T00:34:07.369Z,7.83
2019-06-15T00:36:34.305Z,9.20
2019-06-15T00:39:01.244Z,6.27
2019-06-15T00:41:28.185Z,5.13
2019-06-15T00:43:55.703Z,6.73
2019-06-15T00:46:22.698Z,4.30
2019-06-15T00:48:49.648Z,6.67
2019-06-15T00:51:16.572Z,8.53
2019-06-15T00:53:43.551Z,7.33
2019-06-15T00:56:10.485Z,7.53
2019-06-15T00:58:37.417Z,5.43
2019-06-15T01:01:04.390Z,7.67
2019-06-15T01:03:31.372Z,8.07
2019-06-15T01:05:58.299Z,5.67
2019-06-15T01:08:25.264Z,5.97
2019-06-15T01:10:52.217Z,4.23
2019-06-15T01:13:19.156Z,8.90
2019-06-15T01:15:46.144Z,5.43
2019-06-15T01:18:13.132Z,4.30
2019-06-15T01:20:40.087Z,5.40
2019-06-15T01:23:07.056Z,5.47
2019-06-15T01:25:34.043Z,7.40
2019-06-15T01:28:00.965Z,7.20
2019-06-15T01:30:27.940Z,4.83
2019-06-15T01:32:54.892Z,5.17
2019-06-15T01:35:21.813Z,9.53
2019-06-15T01:37:48.746Z,5.77
2019-06-15T01:40:15.689Z,6.43
2019-06-15T01:42:42.631Z,6.50
2019-06-15T01:45:09.813Z,8.87
2019-06-15T01:47:36.819Z,4.27
2019-06-15T01:50:03.836Z,6.67
2019-06-15T01:52:30.764Z,7.93
2019-06-15T01:54:57.700Z,7.83
2019-06-15T01:57:24.640Z,4.67
2019-06-15T01:59:51.607Z,7.33
2019-06-15T02:02:18.559Z,4.43
2019-06-15T02:04:45.480Z,6.20
2019-06-15T02:07:12.409Z,5.57
2019-06-15T02:09:39.383Z,5.17
2019-06-15T02:12:06.299Z,4.43
2019-06-15T02:14:33.233Z,6.10
2019-06-15T02:17:00.302Z,7.10
2019-06-15T02:19:27.312Z,12.10
2019-06-15T02:21:54.241Z,5.53
2019-06-15T02:24:21.213Z,6.80
2019-06-15T02:26:48.106Z,8.77
2019-06-15T02:29:15.020Z,8.47
2019-06-15T02:31:41.972Z,4.23
2019-06-15T02:34:08.905Z,5.63
2019-06-15T02:36:35.824Z,8.37
2019-06-15T02:39:02.971Z,4.77
2019-06-15T02:41:29.896Z,8.07
2019-06-15T02:43:56.833Z,4.27
2019-06-15T02:46:26.390Z,9.47
2019-06-15T02:48:51.044Z,6.70
2019-06-15T02:51:18.023Z,9.30
2019-06-15T02:53:45.593Z,7.03
2019-06-15T02:56:11.901Z,7.43
2019-06-15T02:58:38.873Z,8.10
2019-06-15T03:01:06.336Z,9.37
2019-06-15T03:03:33.328Z,7.17
2019-06-15T03:06:00.285Z,12.40
2019-06-15T03:08:27.235Z,9.27
2019-06-15T03:10:54.172Z,10.93
2019-06-15T03:13:21.158Z,9.40
2019-06-15T03:15:48.094Z,8.23
2019-06-15T03:18:15.054Z,6.97
2019-06-15T03:20:42.010Z,5.00
2019-06-15T03:23:09.001Z,10.07
2019-06-15T03:25:35.937Z,7.57
2019-06-15T03:28:02.896Z,6.07
2019-06-15T03:30:29.897Z,5.83
2019-06-15T03:32:56.825Z,10.43
2019-06-15T03:35:23.802Z,8.93
2019-06-15T03:37:50.754Z,6.60
2019-06-15T03:40:17.803Z,9.33
2019-06-15T03:42:44.798Z,9.97
2019-06-15T03:45:11.827Z,9.50
2019-06-15T03:47:40.116Z,9.07
2019-06-15T03:50:07.060Z,7.37
2019-06-15T03:52:34.020Z,6.43
2019-06-15T03:55:00.965Z,7.93
2019-06-15T03:57:27.903Z,5.50
2019-06-15T03:59:54.849Z,7.77
2019-06-15T04:02:21.810Z,12.80
2019-06-15T04:04:48.743Z,10.80
2019-06-15T04:07:15.674Z,6.77
2019-06-15T04:09:42.707Z,7.43
2019-06-15T04:12:09.621Z,8.80
2019-06-15T04:14:36.565Z,8.40
2019-06-15T04:17:03.589Z,8.33
2019-06-15T04:19:30.470Z,6.30
2019-06-15T04:21:57.402Z,5.10
2019-06-15T04:24:24.325Z,6.13
2019-06-15T04:26:51.288Z,6.73
2019-06-15T04:29:18.272Z,9.77
2019-06-15T04:31:45.216Z,5.90
2019-06-15T04:34:12.152Z,6.40
2019-06-15T04:36:39.108Z,8.77
2019-06-15T04:39:06.038Z,6.80
2019-06-15T04:41:32.983Z,6.57
2019-06-15T04:43:59.932Z,10.30
2019-06-15T04:46:26.860Z,8.73
2019-06-15T04:48:55.144Z,12.17
2019-06-15T04:51:22.089Z,16.23
2019-06-15T04:53:49.045Z,7.63
2019-06-15T04:56:15.973Z,9.33
2019-06-15T04:58:42.949Z,8.13
2019-06-15T05:01:09.880Z,7.30
2019-06-15T05:03:36.846Z,12.30
2019-06-15T05:06:03.915Z,10.20
2019-06-15T05:08:30.869Z,7.93
2019-06-15T05:10:59.933Z,4.97
2019-06-15T05:13:24.746Z,9.00
2019-06-15T05:15:51.716Z,6.87
2019-06-15T05:18:18.682Z,9.53
2019-06-15T05:20:45.656Z,6.10
2019-06-15T05:23:12.611Z,8.83
2019-06-15T05:25:39.580Z,8.20
2019-06-15T05:28:06.546Z,7.20
2019-06-15T05:30:33.561Z,4.37
2019-06-15T05:33:00.478Z,7.70
2019-06-15T05:35:27.424Z,9.67
2019-06-15T05:37:54.392Z,7.77
2019-06-15T05:40:21.444Z,6.07
2019-06-15T05:42:48.392Z,6.20
2019-06-15T05:45:15.342Z,6.07
2019-06-15T05:47:42.280Z,6.83
2019-06-15T05:50:09.378Z,5.57
2019-06-15T05:52:36.340Z,6.60
2019-06-15T05:55:04.280Z,7.83
2019-06-15T05:57:31.223Z,7.43
2019-06-15T05:59:58.156Z,10.93
2019-06-15T06:02:25.087Z,5.47
2019-06-15T06:04:52.050Z,7.23
2019-06-15T06:07:18.985Z,10.23
2019-06-15T06:09:45.905Z,8.40
2019-06-15T06:12:13.544Z,9.80
2019-06-15T06:14:40.511Z,8.97
2019-06-15T06:17:07.430Z,7.53
2019-06-15T06:19:34.373Z,7.50
2019-06-15T06:22:01.349Z,9.10
2019-06-15T06:24:28.223Z,9.50
2019-06-15T06:26:55.182Z,7.23
2019-06-15T06:29:22.147Z,6.50
2019-06-15T06:31:49.123Z,7.67
2019-06-15T06:34:16.057Z,9.13
2019-06-15T06:36:43.092Z,6.27
2019-06-15T06:39:10.111Z,6.93
2019-06-15T06:41:37.007Z,6.03
2019-06-15T06:44:03.928Z,8.23
2019-06-15T06:46:30.860Z,6.57
2019-06-15T06:48:57.835Z,7.60
2019-06-15T06:51:25.993Z,7.70
2019-06-15T06:53:52.924Z,5.40
2019-06-15T06:56:19.869Z,8.30
2019-06-15T06:58:46.841Z,6.40
2019-06-15T07:01:13.781Z,10.50
2019-06-15T07:03:40.767Z,6.47
2019-06-15T07:06:08.620Z,6.10
2019-06-15T07:08:35.608Z,5.73
2019-06-15T07:11:02.626Z,8.97
2019-06-15T07:13:29.516Z,5.60
2019-06-15T07:15:56.482Z,8.70
2019-06-15T07:18:23.458Z,10.70
2019-06-15T07:20:50.392Z,5.80
2019-06-15T07:23:17.349Z,6.47
2019-06-15T07:25:44.285Z,7.07
2019-06-15T07:28:11.219Z,4.80
2019-06-15T07:30:38.190Z,4.30
2019-06-15T07:33:05.203Z,5.90
2019-06-15T07:35:32.131Z,3.70
2019-06-15T07:37:59.121Z,5.77
2019-06-15T07:40:26.060Z,3.27
2019-06-15T07:42:53.012Z,6.93
2019-06-15T07:45:20.013Z,4.00
2019-06-15T07:47:46.939Z,4.87
2019-06-15T07:50:13.958Z,2.03
2019-06-15T07:52:42.337Z,2.97
2019-06-15T07:55:09.289Z,9.60
2019-06-15T07:57:36.213Z,1.90
2019-06-15T08:00:04.132Z,1.43
2019-06-15T08:02:31.118Z,2.73
2019-06-15T08:04:58.054Z,2.07
2019-06-15T08:07:25.080Z,2.27
2019-06-15T08:09:52.049Z,2.10
2019-06-15T08:12:18.967Z,1.93
2019-06-15T08:14:45.896Z,5.53
2019-06-15T08:17:12.841Z,1.33
2019-06-15T08:19:39.797Z,2.80
2019-06-15T08:22:07.834Z,1.70
2019-06-15T08:24:34.816Z,2.83
2019-06-15T08:27:01.778Z,1.37
2019-06-15T08:29:28.735Z,2.73
2019-06-15T08:31:55.788Z,1.30
2019-06-15T08:34:22.724Z,1.40
2019-06-15T08:36:49.696Z,3.47
2019-06-15T08:39:16.680Z,1.63
2019-06-15T08:41:43.628Z,1.50
2019-06-15T08:44:11.160Z,0.97
2019-06-15T08:46:38.142Z,1.17
2019-06-15T08:49:05.065Z,2.53
2019-06-15T08:51:32.032Z,1.83
2019-06-15T08:53:59.406Z,1.80
2019-06-15T08:56:26.341Z,1.87
2019-06-15T08:58:55.740Z,2.33
2019-06-15T09:01:20.321Z,3.23
2019-06-15T09:03:49.425Z,2.40
2019-06-15T09:06:14.232Z,1.90
2019-06-15T09:08:41.189Z,2.47
2019-06-15T09:11:08.118Z,1.70
2019-06-15T09:13:35.069Z,7.93
2019-06-15T09:16:02.151Z,3.27
2019-06-15T09:18:29.075Z,2.93
2019-06-15T09:20:56.006Z,1.63
2019-06-15T09:23:22.965Z,4.20
2019-06-15T09:25:50.005Z,2.13
2019-06-15T09:28:17.005Z,5.33
2019-06-15T09:30:43.910Z,1.13
2019-06-15T09:33:10.829Z,2.73
2019-06-15T09:35:37.767Z,1.17
2019-06-15T09:38:04.803Z,1.90
2019-06-15T09:40:31.766Z,1.70
2019-06-15T09:42:58.706Z,4.07
2019-06-15T09:45:25.675Z,1.10
2019-06-15T09:47:52.609Z,2.27
2019-06-15T09:50:19.587Z,3.43
2019-06-15T09:52:46.617Z,2.13
2019-06-15T09:55:15.320Z,2.00
2019-06-15T09:57:42.585Z,3.90
2019-06-15T10:00:09.533Z,3.27
2019-06-15T10:02:36.593Z,3.20
2019-06-15T10:05:03.857Z,1.50
2019-06-15T10:07:30.808Z,2.73
2019-06-15T10:09:57.755Z,6.23
2019-06-15T10:12:24.818Z,4.83
2019-06-15T10:14:51.836Z,5.23
2019-06-15T10:17:18.782Z,3.47
2019-06-15T10:19:45.748Z,2.90
2019-06-15T10:22:12.749Z,2.30
2019-06-15T10:24:39.659Z,3.60
2019-06-15T10:27:06.631Z,1.53
2019-06-15T10:29:41.924Z,2.60
2019-06-15T10:32:00.497Z,2.60
2019-06-15T10:34:27.477Z,3.03
2019-06-15T10:36:54.401Z,2.73
2019-06-15T10:39:21.357Z,1.77
2019-06-15T10:41:48.280Z,3.23
2019-06-15T10:44:15.297Z,4.43
2019-06-15T10:46:42.222Z,3.60
2019-06-15T10:49:09.223Z,3.17
2019-06-15T10:51:36.165Z,3.17
2019-06-15T10:54:03.108Z,2.17
2019-06-15T10:56:30.528Z,3.23
2019-06-15T10:58:57.459Z,1.63
2019-06-15T11:01:24.404Z,3.00
2019-06-15T11:03:51.337Z,4.90
2019-06-15T11:06:18.284Z,1.60
2019-06-15T11:08:45.222Z,3.83
2019-06-15T11:11:21.837Z,4.60
2019-06-15T11:13:46.967Z,4.43
2019-06-15T11:16:13.905Z,2.83
2019-06-15T11:18:41.744Z,2.53
2019-06-15T11:21:08.680Z,3.23
2019-06-15T11:23:35.640Z,1.63
2019-06-15T11:26:02.594Z,3.13
2019-06-15T11:28:29.528Z,4.27
2019-06-15T11:30:56.461Z,4.10
2019-06-15T11:33:23.433Z,1.73
2019-06-15T11:35:50.373Z,3.40
2019-06-15T11:38:17.309Z,3.20
2019-06-15T11:40:44.341Z,2.80
2019-06-15T11:43:11.377Z,3.30
2019-06-15T11:45:38.312Z,1.60
2019-06-15T11:48:05.330Z,3.13
2019-06-15T11:50:32.318Z,3.57
2019-06-15T11:52:59.246Z,1.40
2019-06-15T11:55:38.691Z,2.50
2019-06-15T11:57:53.358Z,1.77
2019-06-15T12:00:30.893Z,2.70
2019-06-15T12:02:47.234Z,2.20
2019-06-15T12:05:14.169Z,3.10
2019-06-15T12:07:41.092Z,1.87
2019-06-15T12:10:08.874Z,1.93
2019-06-15T12:12:35.788Z,2.20
2019-06-15T12:15:02.746Z,1.73
2019-06-15T12:17:29.725Z,3.87
2019-06-15T12:19:56.688Z,3.67
2019-06-15T12:22:23.648Z,1.20
2019-06-15T12:24:50.595Z,2.30
2019-06-15T12:27:17.642Z,1.67
2019-06-15T12:29:44.576Z,2.40
2019-06-15T12:32:11.580Z,4.27
2019-06-15T12:34:38.543Z,2.37
2019-06-15T12:37:05.478Z,1.20
2019-06-15T12:39:32.518Z,3.40
2019-06-15T12:41:59.487Z,2.30
2019-06-15T12:44:26.419Z,0.93
2019-06-15T12:46:53.456Z,3.13
2019-06-15T12:49:20.432Z,1.00
2019-06-15T12:51:47.394Z,1.87
2019-06-15T12:54:14.469Z,1.60
2019-06-15T12:56:41.391Z,1.30
2019-06-15T12:59:08.751Z,5.80
2019-06-15T13:01:35.692Z,4.17
2019-06-15T13:04:02.599Z,1.03
2019-06-15T13:06:29.523Z,1.33
2019-06-15T13:08:56.469Z,1.07
2019-06-15T13:11:23.415Z,1.83
2019-06-15T13:13:50.332Z,1.30
2019-06-15T13:16:17.527Z,0.97
2019-06-15T13:18:44.409Z,1.63
2019-06-15T13:21:11.358Z,2.80
2019-06-15T13:23:38.635Z,1.13
2019-06-15T13:26:05.245Z,1.13
2019-06-15T13:28:32.176Z,1.30
2019-06-15T13:30:59.143Z,1.47
2019-06-15T13:33:26.215Z,2.60
2019-06-15T13:35:53.139Z,2.70
2019-06-15T13:38:20.138Z,2.33
2019-06-15T13:40:47.140Z,1.30
2019-06-15T13:43:14.058Z,1.40
2019-06-15T13:45:40.999Z,1.00
2019-06-15T13:48:10.914Z,2.40
2019-06-15T13:50:34.895Z,3.57
2019-06-15T13:53:01.873Z,0.97
2019-06-15T13:55:28.817Z,1.60
2019-06-15T13:57:55.749Z,1.20
2019-06-15T14:00:23.122Z,0.83
2019-06-15T14:02:50.080Z,1.07
2019-06-15T14:05:16.996Z,2.00
2019-06-15T14:07:43.941Z,1.17
2019-06-15T14:10:10.873Z,1.27
2019-06-15T14:12:37.805Z,2.20
2019-06-15T14:15:04.904Z,1.17
2019-06-15T14:17:31.837Z,0.90
2019-06-15T14:19:58.778Z,0.90
2019-06-15T14:22:25.728Z,1.33
2019-06-15T14:24:52.669Z,0.83
2019-06-15T14:27:19.600Z,2.40
2019-06-15T14:29:46.540Z,2.53
2019-06-15T14:32:13.616Z,0.80
2019-06-15T14:34:40.548Z,0.90
2019-06-15T14:37:07.497Z,0.97
2019-06-15T14:39:34.421Z,1.10
2019-06-15T14:42:01.357Z,0.70
2019-06-15T14:44:28.316Z,1.47
2019-06-15T14:46:55.243Z,1.37
2019-06-15T14:49:22.174Z,2.47
2019-06-15T14:51:51.074Z,1.30
2019-06-15T14:54:16.296Z,3.00
2019-06-15T14:56:43.036Z,2.10
2019-06-15T14:59:09.986Z,3.43
2019-06-15T15:01:38.153Z,1.33
2019-06-15T15:04:06.310Z,0.80
2019-06-15T15:06:32.051Z,4.00
2019-06-15T15:08:58.987Z,3.27
2019-06-15T15:11:26.419Z,2.93
2019-06-15T15:13:52.884Z,1.43
2019-06-15T15:16:19.810Z,1.33
2019-06-15T15:18:46.748Z,1.33
2019-06-15T15:21:16.360Z,1.40
2019-06-15T15:23:40.652Z,1.23
2019-06-15T15:26:08.383Z,1.30
2019-06-15T15:28:36.524Z,3.47
2019-06-15T15:31:02.292Z,2.67
2019-06-15T15:33:29.220Z,1.33
2019-06-15T15:35:56.200Z,1.10
2019-06-15T15:38:23.125Z,1.23
2019-06-15T15:40:50.163Z,1.80
2019-06-15T15:43:17.154Z,0.87
2019-06-15T15:45:46.074Z,1.23
2019-06-15T15:48:11.096Z,1.33
2019-06-15T15:50:38.060Z,1.80
2019-06-15T15:53:05.087Z,1.30
2019-06-15T15:55:32.107Z,3.80
2019-06-15T15:57:59.060Z,1.80
2019-06-15T16:00:30.317Z,1.00
2019-06-15T16:02:57.441Z,1.20
2019-06-15T16:05:26.438Z,1.07
2019-06-15T16:07:51.354Z,2.10
2019-06-15T16:10:18.293Z,3.30
2019-06-15T16:12:46.460Z,1.73
2019-06-15T16:15:12.405Z,3.50
2019-06-15T16:17:39.327Z,3.13
2019-06-15T16:20:06.697Z,1.30
2019-06-15T16:22:33.480Z,1.33
2019-06-15T16:25:00.392Z,1.03
2019-06-15T16:27:27.370Z,1.10
2019-06-15T16:29:56.597Z,1.10
2019-06-15T16:32:21.320Z,2.33
2019-06-15T16:34:48.268Z,3.40
2019-06-15T16:37:16.982Z,1.10
2019-06-15T16:39:42.156Z,2.20
2019-06-15T16:42:09.107Z,1.20
2019-06-15T16:44:36.621Z,2.00
2019-06-15T16:47:02.993Z,2.30
2019-06-15T16:49:29.952Z,1.40
2019-06-15T16:51:56.893Z,1.90
2019-06-15T16:54:23.841Z,1.40
2019-06-15T16:56:50.806Z,5.10
2019-06-15T16:59:17.736Z,1.80
2019-06-15T17:01:44.688Z,2.47
2019-06-15T17:04:13.075Z,1.80
2019-06-15T17:06:40.805Z,1.03
2019-06-15T17:09:06.951Z,1.30
2019-06-15T17:11:36.558Z,1.33
2019-06-15T17:14:00.894Z,1.20
2019-06-15T17:16:27.815Z,1.23
2019-06-15T17:18:56.254Z,1.60
2019-06-15T17:21:21.749Z,2.63
2019-06-15T17:23:48.688Z,1.00
2019-06-15T17:26:16.850Z,2.30
2019-06-15T17:28:42.579Z,4.50
2019-06-15T17:31:09.525Z,1.87
2019-06-15T17:33:38.257Z,1.60
2019-06-15T17:36:03.561Z,1.50
2019-06-15T17:38:30.337Z,2.87
2019-06-15T17:40:57.306Z,3.53
2019-06-15T17:43:26.662Z,5.47
2019-06-15T17:45:51.140Z,2.40
2019-06-15T17:48:18.112Z,1.70
2019-06-15T17:50:47.463Z,2.67
2019-06-15T17:53:11.996Z,1.70
2019-06-15T17:55:38.945Z,3.23
2019-06-15T17:58:06.461Z,3.50
2019-06-15T18:00:37.522Z,2.17
2019-06-15T18:03:06.754Z,1.80
2019-06-15T18:05:33.955Z,2.20
2019-06-15T18:08:01.668Z,1.70
2019-06-15T18:10:27.868Z,2.07
2019-06-15T18:12:56.316Z,1.60
2019-06-15T18:15:21.726Z,8.87
2019-06-15T18:17:48.703Z,8.20
2019-06-15T18:20:16.337Z,2.23
2019-06-15T18:22:43.274Z,3.80
2019-06-15T18:25:10.236Z,1.90
2019-06-15T18:27:37.439Z,2.07
2019-06-15T18:30:06.403Z,1.87
2019-06-15T18:32:31.161Z,2.13
2019-06-15T18:34:58.116Z,2.83
2019-06-15T18:37:25.060Z,4.10
2019-06-15T18:39:52.069Z,2.20
2019-06-15T18:42:19.184Z,1.93
2019-06-15T18:44:47.882Z,1.70
2019-06-15T18:47:13.047Z,1.70
2019-06-15T18:49:40.524Z,1.50
2019-06-15T18:52:07.529Z,1.63
2019-06-15T18:54:36.381Z,1.83
2019-06-15T18:57:01.448Z,1.70
2019-06-15T18:59:28.383Z,1.70
2019-06-15T19:01:56.106Z,4.43
2019-06-15T19:04:27.166Z,2.00
2019-06-15T19:06:49.545Z,1.70
2019-06-15T19:09:16.491Z,1.77
2019-06-15T19:11:43.461Z,2.07
2019-06-15T19:14:10.405Z,1.43
2019-06-15T19:16:37.364Z,2.13
2019-06-15T19:19:04.308Z,1.70
2019-06-15T19:21:31.239Z,1.80
2019-06-15T19:23:58.196Z,1.60
2019-06-15T19:26:26.873Z,1.97
2019-06-15T19:28:52.192Z,3.30
2019-06-15T19:31:19.143Z,2.40
2019-06-15T19:33:46.837Z,2.17
2019-06-15T19:36:13.052Z,1.83
2019-06-15T19:38:40.080Z,2.33
2019-06-15T19:41:07.206Z,2.23
2019-06-15T19:43:36.148Z,2.00
2019-06-15T19:46:01.055Z,2.10
2019-06-15T19:48:27.967Z,1.70
2019-06-15T19:50:56.616Z,2.00
2019-06-15T19:53:21.981Z,1.97
2019-06-15T19:55:48.981Z,2.13
2019-06-15T19:58:16.351Z,2.97
2019-06-15T20:00:42.937Z,1.83
2019-06-15T20:03:09.941Z,2.20
2019-06-15T20:05:37.336Z,1.73
2019-06-15T20:08:06.742Z,1.73
2019-06-15T20:10:30.994Z,3.87
2019-06-15T20:12:58.709Z,2.30
2019-06-15T20:15:26.420Z,1.90
2019-06-15T20:17:52.592Z,4.20
2019-06-15T20:20:19.648Z,2.70
2019-06-15T20:22:46.909Z,2.63
2019-06-15T20:25:15.956Z,2.40
2019-06-15T20:27:40.746Z,4.60
2019-06-15T20:30:07.709Z,3.00
2019-06-15T20:32:36.866Z,2.70
2019-06-15T20:35:16.100Z,2.80
2019-06-15T20:37:28.660Z,3.00
2019-06-15T20:39:56.123Z,2.53
2019-06-15T20:42:22.651Z,4.07
2019-06-15T20:44:49.659Z,2.50
2019-06-15T20:47:16.565Z,3.90
2019-06-15T20:49:43.504Z,2.77
2019-06-15T20:52:10.453Z,2.23
2019-06-15T20:54:37.399Z,2.40
2019-06-15T20:57:06.372Z,2.77
2019-06-15T20:59:31.540Z,5.03
2019-06-15T21:01:58.488Z,2.83
2019-06-15T21:04:26.755Z,3.10
2019-06-15T21:06:52.424Z,5.00
2019-06-15T21:09:19.596Z,2.40
2019-06-15T21:11:46.512Z,4.17
2019-06-15T21:14:13.468Z,2.43
2019-06-15T21:16:41.163Z,2.70
2019-06-15T21:19:07.433Z,2.60
2019-06-15T21:21:37.213Z,4.30
2019-06-15T21:24:01.969Z,2.27
2019-06-15T21:26:28.909Z,2.40
2019-06-15T21:28:56.603Z,2.80
2019-06-15T21:31:22.813Z,3.07
2019-06-15T21:33:49.756Z,3.10
2019-06-15T21:36:16.815Z,2.93
2019-06-15T21:38:43.787Z,2.83
2019-06-15T21:41:10.831Z,3.53
2019-06-15T21:43:37.781Z,6.13
2019-06-15T21:46:06.364Z,3.77
2019-06-15T21:48:31.650Z,7.47
2019-06-15T21:50:59.628Z,3.63
2019-06-15T21:53:26.704Z,3.83
2019-06-15T21:55:52.732Z,4.07
2019-06-15T21:58:19.750Z,4.87
2019-06-15T22:00:56.792Z,5.13
2019-06-15T22:03:26.232Z,7.27
2019-06-15T22:06:02.911Z,3.20
2019-06-15T22:08:17.673Z,3.20
2019-06-15T22:10:46.962Z,3.53
2019-06-15T22:13:15.953Z,5.27
2019-06-15T22:15:40.879Z,3.37
2019-06-15T22:18:07.853Z,5.37
2019-06-15T22:20:35.977Z,5.90
2019-06-15T22:23:02.594Z,10.43
2019-06-15T22:25:29.577Z,7.00
2019-06-15T22:27:56.516Z,7.70
2019-06-15T22:30:23.464Z,4.73
2019-06-15T22:32:50.444Z,3.60
2019-06-15T22:35:17.419Z,3.33
2019-06-15T22:37:46.598Z,6.67
2019-06-15T22:40:11.296Z,5.13
2019-06-15T22:42:38.225Z,3.27
2019-06-15T22:45:06.658Z,6.33
2019-06-15T22:47:32.116Z,9.83
2019-06-15T22:49:59.044Z,5.77
2019-06-15T22:52:26.480Z,9.53
2019-06-15T22:54:52.956Z,7.13
2019-06-15T22:57:19.904Z,5.00
2019-06-15T22:59:46.885Z,4.87
2019-06-15T23:02:13.845Z,4.67
2019-06-15T23:04:40.864Z,7.33
2019-06-15T23:07:07.805Z,5.70
2019-06-15T23:09:36.042Z,3.67
2019-06-15T23:12:02.230Z,8.00
2019-06-15T23:14:29.171Z,4.83
2019-06-15T23:16:56.697Z,3.73
2019-06-15T23:19:23.080Z,5.23
2019-06-15T23:21:50.031Z,4.90
2019-06-15T23:24:16.988Z,3.70
2019-06-15T23:26:46.054Z,3.70
2019-06-15T23:29:10.880Z,5.13
2019-06-15T23:31:37.856Z,3.90
2019-06-15T23:34:07.041Z,3.20
2019-06-15T23:36:33.176Z,6.83
2019-06-15T23:39:00.111Z,6.17
2019-06-15T23:41:27.440Z,5.93
2019-06-15T23:43:55.947Z,6.20
2019-06-15T23:46:20.998Z,4.87
2019-06-15T23:48:47.932Z,3.73
2019-06-15T23:51:17.016Z,3.43
2019-06-15T23:53:41.892Z,3.93
2019-06-15T23:56:08.834Z,4.17
2019-06-15T23:58:37.036Z,4.10
